Time;durP1;ratioP1;P1;durP2;ratioP2;P2;SDS_P1;SDS_P2;PMS_P1;PMS_P2;Temp;Humidity;BMP_temperature;BMP_pressure;BME280_temperature;BME280_humidity;BME280_pressure;Samples;Min_cycle;Max_cycle;Signal;HPM_P1;HPM_P2
2021/01/19 00:01:20;;;;;;;14.13;0.97;;;6.60;83.30;;;;;;6187295;23;20013;-90
2021/01/19 00:03:47;;;;;;;0.00;0.00;;;6.70;83.40;;;;;;6210731;23;19997;-91
2021/01/19 00:06:13;;;;;;;0.10;0.10;;;6.60;83.30;;;;;;6210247;23;20012;-92
2021/01/19 00:08:39;;;;;;;0.30;0.10;;;6.60;83.40;;;;;;6183898;23;20016;-90
2021/01/19 00:11:06;;;;;;;1.30;0.07;;;6.60;83.60;;;;;;6210747;23;19993;-88
2021/01/19 00:13:32;;;;;;;0.30;0.10;;;6.50;83.70;;;;;;6214902;23;19993;-91
2021/01/19 00:15:59;;;;;;;0.30;0.00;;;6.50;83.80;;;;;;6216966;23;20012;-90
2021/01/19 00:18:25;;;;;;;0.00;0.00;;;6.40;83.90;;;;;;6217655;23;20002;-92
2021/01/19 00:20:52;;;;;;;0.20;0.10;;;6.40;84.00;;;;;;6217141;23;20004;-91
2021/01/19 00:23:18;;;;;;;0.10;0.10;;;6.40;84.00;;;;;;6218510;23;20001;-93
2021/01/19 00:25:45;;;;;;;0.40;0.40;;;6.40;84.10;;;;;;6193625;23;20001;-91
2021/01/19 00:28:11;;;;;;;0.03;0.00;;;6.30;84.10;;;;;;6217504;23;20004;-91
2021/01/19 00:30:41;;;;;;;0.17;0.10;;;6.30;84.90;;;;;;6216456;23;20019;-92
2021/01/19 00:33:08;;;;;;;1.07;0.10;;;6.30;84.20;;;;;;6216381;23;19999;-93
2021/01/19 00:35:35;;;;;;;1.20;0.50;;;6.30;84.30;;;;;;6218604;23;20001;-88
2021/01/19 00:38:01;;;;;;;1.10;0.10;;;6.30;84.40;;;;;;6216669;23;20009;-92
2021/01/19 00:40:28;;;;;;;0.50;0.20;;;6.20;84.40;;;;;;6218406;23;20005;-91
2021/01/19 00:42:55;;;;;;;10.70;0.77;;;6.20;84.50;;;;;;6158282;23;1407279;-91
2021/01/19 00:45:21;;;;;;;0.00;0.00;;;6.20;84.60;;;;;;6191805;23;20009;-90
2021/01/19 00:47:47;;;;;;;3.30;0.13;;;6.10;84.70;;;;;;6193537;23;20005;-90
2021/01/19 00:50:14;;;;;;;0.10;0.03;;;6.10;84.80;;;;;;6196905;23;20004;-90
2021/01/19 00:52:40;;;;;;;0.10;0.00;;;6.10;84.90;;;;;;6220077;23;20234;-90
2021/01/19 00:55:10;;;;;;;0.20;0.17;;;6.10;84.80;;;;;;6216457;23;20012;-91
2021/01/19 00:57:37;;;;;;;0.00;0.00;;;6.10;84.80;;;;;;6192117;23;20005;-92
2021/01/19 01:00:08;;;;;;;0.00;0.00;;;6.00;84.80;;;;;;6214337;23;19997;-91
2021/01/19 01:02:34;;;;;;;0.10;0.10;;;6.10;84.70;;;;;;6211593;23;20016;-89
2021/01/19 01:05:05;;;;;;;0.07;0.07;;;6.00;84.60;;;;;;6213471;23;20001;-91
2021/01/19 01:07:36;;;;;;;1.20;0.77;;;6.10;84.60;;;;;;6211560;23;20009;-92
2021/01/19 01:10:04;;;;;;;0.93;0.43;;;6.10;84.50;;;;;;6211697;23;20004;-92
2021/01/19 01:12:30;;;;;;;1.67;0.70;;;6.10;84.40;;;;;;6213516;23;20000;-92
2021/01/19 01:14:56;;;;;;;0.00;0.00;;;6.10;84.30;;;;;;6212984;23;19997;-90
2021/01/19 01:17:23;;;;;;;0.97;0.40;;;6.20;84.30;;;;;;6210710;23;20016;-93
2021/01/19 01:19:49;;;;;;;1.07;0.23;;;6.20;84.90;;;;;;6187930;23;20240;-92
2021/01/19 01:22:15;;;;;;;0.40;0.10;;;6.30;84.10;;;;;;6188402;23;20008;-91
2021/01/19 01:24:42;;;;;;;0.00;0.00;;;6.30;84.00;;;;;;6211570;23;20238;-92
2021/01/19 01:27:08;;;;;;;0.00;0.00;;;6.30;83.90;;;;;;6213212;23;20253;-92
2021/01/19 01:29:34;;;;;;;0.87;0.30;;;6.30;83.80;;;;;;6212535;23;20016;-90
2021/01/19 01:32:01;;;;;;;13.10;0.30;;;6.30;83.80;;;;;;6210791;23;20020;-91
2021/01/19 01:34:27;;;;;;;0.00;0.00;;;6.30;83.80;;;;;;6211106;23;20009;-93
2021/01/19 01:36:54;;;;;;;0.00;0.00;;;6.30;83.70;;;;;;6212437;23;20281;-92
2021/01/19 01:39:20;;;;;;;1.50;0.30;;;6.40;83.70;;;;;;6211931;23;20392;-91
2021/01/19 01:41:46;;;;;;;0.00;0.00;;;6.40;83.60;;;;;;6186319;23;20286;-93
2021/01/19 01:44:13;;;;;;;0.00;0.00;;;6.40;83.50;;;;;;6186241;23;20013;-93
2021/01/19 01:46:39;;;;;;;0.93;0.50;;;6.40;83.50;;;;;;6188512;23;20036;-92
2021/01/19 01:49:05;;;;;;;0.20;0.20;;;6.40;83.40;;;;;;6188719;23;19997;-91
2021/01/19 01:51:33;;;;;;;0.10;0.00;;;6.50;83.40;;;;;;6186890;23;20356;-91
2021/01/19 01:54:00;;;;;;;0.10;0.10;;;6.50;83.30;;;;;;6160304;23;19998;-93
2021/01/19 01:56:26;;;;;;;0.00;0.00;;;6.50;83.20;;;;;;6186692;23;20153;-92
2021/01/19 01:58:53;;;;;;;0.27;0.27;;;6.50;83.30;;;;;;6188398;23;20269;-92
2021/01/19 02:01:19;;;;;;;0.00;0.00;;;6.50;83.30;;;;;;6186239;23;20013;-91
2021/01/19 02:03:46;;;;;;;0.40;0.27;;;6.50;83.30;;;;;;6160826;23;20008;-91
2021/01/19 02:06:15;;;;;;;0.10;0.10;;;6.50;83.30;;;;;;6186147;23;20009;-91
2021/01/19 02:08:49;;;;;;;0.50;0.43;;;6.50;84.00;;;;;;6160938;23;20005;-91
2021/01/19 02:11:33;;;;;;;1.30;0.10;;;6.50;83.20;;;;;;6186683;23;20225;-91
2021/01/19 02:14:08;;;;;;;0.00;0.00;;;6.50;83.20;;;;;;6188855;23;19993;-93
2021/01/19 02:16:56;;;;;;;0.00;0.00;;;6.50;83.20;;;;;;6160067;23;20020;-92
2021/01/19 02:19:29;;;;;;;0.33;0.07;;;6.50;83.20;;;;;;6187243;23;20385;-90
2021/01/19 02:22:09;;;;;;;1.07;0.00;;;6.50;83.20;;;;;;6186838;23;20024;-91
2021/01/19 02:25:10;;;;;;;0.17;0.17;;;6.50;83.30;;;;;;6185950;23;20001;-91
2021/01/19 02:27:57;;;;;;;4.25;0.40;;;6.50;83.20;;;;;;6185219;23;20142;-92
2021/01/19 02:30:52;;;;;;;0.03;0.00;;;6.50;83.30;;;;;;6185158;23;20261;-91
2021/01/19 02:33:37;;;;;;;0.97;0.30;;;6.40;83.40;;;;;;6187716;23;20272;-91
2021/01/19 02:36:44;;;;;;;0.00;0.00;;;6.40;83.50;;;;;;6189191;23;20166;-93
2021/01/19 02:39:10;;;;;;;0.00;0.00;;;6.40;83.60;;;;;;6185018;23;20001;-90
2021/01/19 02:41:39;;;;;;;0.00;0.00;;;6.40;83.60;;;;;;6188539;23;20009;-90
2021/01/19 02:44:25;;;;;;;0.03;0.00;;;6.40;83.70;;;;;;6187788;23;20000;-91
2021/01/19 02:46:56;;;;;;;6.70;0.53;;;6.30;83.70;;;;;;6187781;23;20020;-91
2021/01/19 02:49:23;;;;;;;0.20;0.08;;;6.30;83.70;;;;;;6189768;23;20265;-92
2021/01/19 02:51:49;;;;;;;0.00;0.00;;;6.30;83.70;;;;;;6188915;23;20012;-90
2021/01/19 02:54:16;;;;;;;0.00;0.00;;;6.30;83.80;;;;;;6189618;23;20001;-91
2021/01/19 02:57:03;;;;;;;0.10;0.10;;;6.30;83.80;;;;;;6186785;23;20265;-92
2021/01/19 02:59:56;;;;;;;0.07;0.07;;;6.30;83.80;;;;;;6141702;23;20005;-92
2021/01/19 03:02:26;;;;;;;0.30;0.20;;;6.30;83.80;;;;;;6147124;23;20012;-85
2021/01/19 03:04:52;;;;;;;0.90;0.87;;;6.30;83.80;;;;;;6181116;23;19997;-91
2021/01/19 03:07:19;;;;;;;0.33;0.23;;;6.30;83.80;;;;;;6186392;23;19997;-90
2021/01/19 03:09:48;;;;;;;0.33;0.20;;;6.30;83.80;;;;;;6186981;23;20400;-90
2021/01/19 03:12:15;;;;;;;0.27;0.07;;;6.30;83.70;;;;;;6185494;23;20149;-91
2021/01/19 03:14:41;;;;;;;0.00;0.00;;;6.30;83.80;;;;;;6185231;23;19993;-91
2021/01/19 03:17:08;;;;;;;7.07;0.30;;;6.30;83.70;;;;;;6159618;23;20013;-92
2021/01/19 03:19:37;;;;;;;0.20;0.10;;;6.30;83.70;;;;;;6184344;23;20020;-91
2021/01/19 03:22:03;;;;;;;4.37;0.47;;;6.30;83.70;;;;;;6160535;23;20392;-91
2021/01/19 03:24:29;;;;;;;0.00;0.00;;;6.30;83.70;;;;;;6186849;23;20005;-92
2021/01/19 03:26:56;;;;;;;0.87;0.30;;;6.30;83.60;;;;;;6159209;23;20012;-92
2021/01/19 03:29:22;;;;;;;0.00;0.00;;;6.40;83.60;;;;;;6184574;23;20009;-91
2021/01/19 03:31:49;;;;;;;0.10;0.00;;;6.40;83.60;;;;;;6159579;23;20020;-92
2021/01/19 03:34:15;;;;;;;0.00;0.00;;;6.40;83.60;;;;;;6185592;23;20396;-92
2021/01/19 03:36:41;;;;;;;0.00;0.00;;;6.40;83.60;;;;;;6185669;23;19997;-92
2021/01/19 03:39:08;;;;;;;0.30;0.10;;;6.40;83.60;;;;;;6189888;23;20001;-92
2021/01/19 03:41:34;;;;;;;0.20;0.13;;;6.40;83.50;;;;;;6187967;23;20384;-92
2021/01/19 03:44:01;;;;;;;1.07;0.20;;;6.40;83.40;;;;;;6161476;23;20020;-92
2021/01/19 03:46:27;;;;;;;0.00;0.00;;;6.50;83.40;;;;;;6160899;23;20013;-93
2021/01/19 03:48:53;;;;;;;1.70;0.23;;;6.50;83.40;;;;;;6186639;23;20001;-91
2021/01/19 03:51:20;;;;;;;0.30;0.10;;;6.50;83.30;;;;;;6160879;23;20012;-91
2021/01/19 03:53:47;;;;;;;0.33;0.20;;;6.50;84.00;;;;;;6185991;23;20012;-92
2021/01/19 03:56:13;;;;;;;0.10;0.10;;;6.50;83.20;;;;;;6188313;23;20369;-92
2021/01/19 03:58:39;;;;;;;0.00;0.00;;;6.50;83.20;;;;;;6186927;23;20414;-91
2021/01/19 04:01:07;;;;;;;0.00;0.00;;;6.60;83.30;;;;;;6191101;23;20017;-92
2021/01/19 04:03:33;;;;;;;0.43;0.27;;;6.50;83.20;;;;;;6164286;23;20001;-92
2021/01/19 04:06:00;;;;;;;0.10;0.10;;;6.50;83.20;;;;;;6189290;23;20318;-92
2021/01/19 04:08:26;;;;;;;1.67;0.53;;;6.60;83.20;;;;;;6161872;23;20008;-92
2021/01/19 04:10:53;;;;;;;0.00;0.00;;;6.60;83.20;;;;;;6188333;23;20261;-92
2021/01/19 04:13:19;;;;;;;5.37;0.30;;;6.60;83.20;;;;;;6186784;23;20012;-92
2021/01/19 04:15:46;;;;;;;0.00;0.00;;;6.60;83.20;;;;;;6184339;23;20035;-91
2021/01/19 04:18:13;;;;;;;0.07;0.00;;;6.60;83.10;;;;;;6185879;23;20000;-90
2021/01/19 04:20:40;;;;;;;0.00;0.00;;;6.60;83.00;;;;;;6186895;23;20324;-92
2021/01/19 04:23:06;;;;;;;0.30;0.10;;;6.60;83.00;;;;;;6187385;23;20005;-92
2021/01/19 04:25:32;;;;;;;5.83;0.43;;;6.60;83.00;;;;;;6187187;23;20217;-92
2021/01/19 04:27:59;;;;;;;0.53;0.40;;;6.60;83.10;;;;;;6184289;23;20411;-90
2021/01/19 04:30:25;;;;;;;0.00;0.00;;;6.60;83.10;;;;;;6184793;23;20202;-92
2021/01/19 04:32:52;;;;;;;0.40;0.20;;;6.50;83.10;;;;;;6185750;23;20008;-91
2021/01/19 04:35:18;;;;;;;0.37;0.30;;;6.50;83.10;;;;;;6186986;23;20005;-92
2021/01/19 04:37:44;;;;;;;0.43;0.17;;;6.50;83.20;;;;;;6187219;23;20028;-92
2021/01/19 04:40:11;;;;;;;1.70;0.77;;;6.50;83.20;;;;;;6194984;23;20000;-89
2021/01/19 04:42:37;;;;;;;0.33;0.23;;;6.40;83.20;;;;;;6210594;23;20059;-89
2021/01/19 04:45:05;;;;;;;0.20;0.10;;;6.50;83.20;;;;;;6206607;23;20001;-89
2021/01/19 04:47:35;;;;;;;1.60;0.30;;;6.50;83.20;;;;;;6206823;23;20053;-90
2021/01/19 04:50:04;;;;;;;14.02;1.20;;;6.40;83.30;;;;;;6209989;23;19993;-90
2021/01/19 04:52:32;;;;;;;4.60;1.33;;;6.40;83.30;;;;;;6208852;23;20013;-91
2021/01/19 04:55:12;;;;;;;0.13;0.10;;;6.40;83.40;;;;;;6210598;23;20031;-91
2021/01/19 04:57:39;;;;;;;0.15;0.08;;;6.40;83.40;;;;;;6209877;23;20217;-86
2021/01/19 05:00:13;;;;;;;2.17;0.30;;;6.40;83.40;;;;;;6209660;23;20244;-91
2021/01/19 05:02:40;;;;;;;0.00;0.00;;;6.40;83.40;;;;;;6210085;23;20037;-91
2021/01/19 05:05:28;;;;;;;0.00;0.00;;;6.40;83.40;;;;;;6212283;23;20033;-90
2021/01/19 05:08:16;;;;;;;0.63;0.33;;;6.30;83.40;;;;;;6184589;23;20057;-91
2021/01/19 05:11:00;;;;;;;0.20;0.00;;;6.30;83.30;;;;;;6187969;23;20322;-91
2021/01/19 05:13:51;;;;;;;0.00;0.00;;;6.30;83.40;;;;;;6181969;23;19993;-92
2021/01/19 05:16:19;;;;;;;0.83;0.50;;;6.30;83.40;;;;;;6184683;23;20006;-90
2021/01/19 05:18:46;;;;;;;0.23;0.10;;;6.30;83.40;;;;;;6186216;23;19997;-92
2021/01/19 05:21:12;;;;;;;0.40;0.20;;;6.20;83.50;;;;;;6186953;23;20001;-92
2021/01/19 05:23:38;;;;;;;0.00;0.00;;;6.20;83.60;;;;;;6186587;23;20012;-92
2021/01/19 05:26:06;;;;;;;2.73;0.57;;;6.10;83.60;;;;;;6184543;23;20009;-92
2021/01/19 05:28:35;;;;;;;0.53;0.20;;;6.10;83.80;;;;;;6184870;23;20380;-93
2021/01/19 05:31:06;;;;;;;0.10;0.10;;;6.10;83.90;;;;;;6184242;23;20013;-93
2021/01/19 05:33:34;;;;;;;3.47;0.37;;;6.00;84.20;;;;;;6185866;23;19993;-92
2021/01/19 05:36:07;;;;;;;5.27;0.80;;;6.00;84.00;;;;;;6185776;23;19993;-94
2021/01/19 05:38:53;;;;;;;1.20;0.40;;;6.00;84.00;;;;;;6184467;23;20009;-92
2021/01/19 05:41:26;;;;;;;1.13;0.30;;;6.00;84.10;;;;;;6185757;23;20262;-92
2021/01/19 05:43:55;;;;;;;0.00;0.00;;;5.90;84.00;;;;;;6160986;23;20024;-92
2021/01/19 05:46:26;;;;;;;0.10;0.00;;;5.90;84.10;;;;;;6135933;23;20020;-92
2021/01/19 05:49:00;;;;;;;0.65;0.35;;;5.90;84.20;;;;;;6135060;23;20009;-93
2021/01/19 05:51:30;;;;;;;0.30;0.30;;;5.80;84.20;;;;;;6160682;23;20257;-90
2021/01/19 05:53:58;;;;;;;0.00;0.00;;;5.80;84.30;;;;;;6162486;23;19993;-92
2021/01/19 05:56:24;;;;;;;0.93;0.50;;;5.70;84.30;;;;;;6135549;23;20269;-92
2021/01/19 05:58:51;;;;;;;0.10;0.10;;;5.70;84.40;;;;;;6160596;23;20001;-90
2021/01/19 06:01:31;;;;;;;0.00;0.00;;;5.70;84.40;;;;;;6160916;23;20281;-91
2021/01/19 06:03:59;;;;;;;1.60;0.20;;;5.70;84.50;;;;;;6162178;23;20001;-90
2021/01/19 06:06:26;;;;;;;5.13;0.50;;;5.60;84.50;;;;;;6138225;23;20001;-91
2021/01/19 06:09:13;;;;;;;0.20;0.03;;;5.60;84.60;;;;;;6162386;23;19997;-92
2021/01/19 06:11:39;;;;;;;0.27;0.23;;;5.60;84.70;;;;;;6162631;23;20001;-93
2021/01/19 06:14:06;;;;;;;6.80;0.20;;;5.50;84.60;;;;;;6138472;23;20002;-91
2021/01/19 06:16:32;;;;;;;0.30;0.07;;;5.50;84.70;;;;;;6187197;23;20005;-89
2021/01/19 06:18:58;;;;;;;1.07;0.20;;;5.50;84.70;;;;;;6163544;23;20261;-92
2021/01/19 06:21:34;;;;;;;0.37;0.20;;;5.50;84.70;;;;;;6137802;23;20005;-92
2021/01/19 06:24:01;;;;;;;1.73;0.70;;;5.40;84.60;;;;;;6140007;23;20005;-91
2021/01/19 06:26:27;;;;;;;1.30;0.20;;;5.50;84.70;;;;;;6141856;23;20268;-90
2021/01/19 06:28:54;;;;;;;2.30;0.30;;;5.40;84.70;;;;;;6113572;23;20353;-92
2021/01/19 06:31:21;;;;;;;1.40;0.37;;;5.40;84.80;;;;;;6111726;23;20019;-91
2021/01/19 06:33:49;;;;;;;0.70;0.30;;;5.40;84.80;;;;;;6112489;23;20003;-91
2021/01/19 06:36:19;;;;;;;1.10;0.23;;;5.30;84.80;;;;;;6188658;23;20004;-92
2021/01/19 06:38:49;;;;;;;3.70;0.70;;;5.30;84.90;;;;;;6161960;23;20012;-92
2021/01/19 06:41:18;;;;;;;7.15;0.82;;;5.30;84.90;;;;;;6163302;23;20232;-93
2021/01/19 06:43:54;;;;;;;7.00;0.60;;;5.20;84.80;;;;;;6164774;23;20028;-92
2021/01/19 06:46:20;;;;;;;0.10;0.10;;;5.20;84.90;;;;;;6215879;23;20020;-93
2021/01/19 06:48:47;;;;;;;0.40;0.40;;;5.20;84.90;;;;;;6190905;23;20012;-92
2021/01/19 06:51:14;;;;;;;0.10;0.07;;;5.20;84.90;;;;;;6166210;23;20000;-92
2021/01/19 06:53:40;;;;;;;0.83;0.60;;;5.20;85.00;;;;;;6165400;23;20001;-91
2021/01/19 06:56:11;;;;;;;1.97;0.77;;;5.10;85.00;;;;;;6215933;23;20001;-91
2021/01/19 06:58:48;;;;;;;0.82;0.30;;;5.10;85.00;;;;;;6214718;23;19996;-91
2021/01/19 07:01:34;;;;;;;4.90;2.03;;;5.10;85.00;;;;;;6214276;23;20009;-90
2021/01/19 07:04:18;;;;;;;4.40;1.17;;;5.10;85.10;;;;;;6192220;23;20005;-89
2021/01/19 07:07:13;;;;;;;6.27;1.33;;;5.00;85.10;;;;;;6217150;23;20387;-91
2021/01/19 07:10:13;;;;;;;11.93;1.60;;;4.90;85.20;;;;;;6190897;23;20000;-93
2021/01/19 07:12:56;;;;;;;0.00;0.00;;;4.90;85.20;;;;;;6178793;23;20101;-91
2021/01/19 07:15:42;;;;;;;0.60;0.20;;;4.90;85.30;;;;;;6188110;23;20081;-90
2021/01/19 07:18:12;;;;;;;7.53;0.57;;;4.90;85.30;;;;;;6142731;23;20012;-91
2021/01/19 07:20:47;;;;;;;0.13;0.03;;;4.80;85.30;;;;;;6217493;23;20008;-93
2021/01/19 07:23:41;;;;;;;0.60;0.23;;;4.80;85.30;;;;;;6163839;23;20384;-88
2021/01/19 07:26:08;;;;;;;0.30;0.20;;;4.80;85.30;;;;;;6189153;23;20011;-90
2021/01/19 07:28:35;;;;;;;0.23;0.20;;;4.80;85.30;;;;;;6214739;23;20003;-89
2021/01/19 07:31:01;;;;;;;0.70;0.40;;;4.80;85.20;;;;;;6189478;23;20264;-87
2021/01/19 07:33:28;;;;;;;0.33;0.07;;;4.80;85.30;;;;;;6191401;23;19997;-91
2021/01/19 07:35:54;;;;;;;0.53;0.37;;;4.80;85.30;;;;;;6191409;23;19997;-91
2021/01/19 07:38:24;;;;;;;1.40;0.67;;;4.80;85.30;;;;;;6168130;23;20007;-92
2021/01/19 07:40:50;;;;;;;0.57;0.20;;;4.80;85.30;;;;;;6218375;23;20001;-93
2021/01/19 07:43:17;;;;;;;1.17;0.40;;;4.80;85.30;;;;;;6214515;23;20020;-93
2021/01/19 07:45:52;;;;;;;1.47;0.93;;;4.70;85.30;;;;;;6190297;23;20019;-91
2021/01/19 07:48:35;;;;;;;1.50;0.27;;;4.70;85.30;;;;;;6167935;23;20008;-94
2021/01/19 07:51:15;;;;;;;0.83;0.37;;;4.70;85.40;;;;;;6192888;23;20004;-92
2021/01/19 07:53:53;;;;;;;0.07;0.07;;;4.70;85.40;;;;;;6194024;23;19993;-90
2021/01/19 07:56:26;;;;;;;3.10;0.23;;;4.70;85.30;;;;;;6200197;23;19993;-92
2021/01/19 07:58:53;;;;;;;8.10;0.43;;;4.70;85.20;;;;;;6222908;23;20000;-92
2021/01/19 08:01:32;;;;;;;1.77;0.53;;;4.80;85.20;;;;;;6205879;23;20017;-94
2021/01/19 08:04:13;;;;;;;1.20;0.20;;;5.30;84.60;;;;;;6169452;23;20001;-90
2021/01/19 08:06:40;;;;;;;0.93;0.80;;;6.30;82.20;;;;;;6193806;23;20021;-91
2021/01/19 08:09:14;;;;;;;0.10;0.00;;;7.10;80.00;;;;;;6195954;23;20272;-92
2021/01/19 08:11:42;;;;;;;0.33;0.30;;;7.60;78.50;;;;;;6192097;23;20012;-94
2021/01/19 08:14:08;;;;;;;0.10;0.10;;;8.00;77.70;;;;;;6221803;23;20008;-91
2021/01/19 08:16:38;;;;;;;0.07;0.07;;;8.20;77.30;;;;;;6197968;23;20005;-89
2021/01/19 08:19:08;;;;;;;9.33;0.50;;;8.30;77.50;;;;;;6175665;23;20001;-92
2021/01/19 08:21:58;;;;;;;0.00;0.00;;;8.50;77.60;;;;;;6174633;23;20028;-90
2021/01/19 08:24:25;;;;;;;0.60;0.20;;;8.60;77.40;;;;;;6224651;23;19996;-91
2021/01/19 08:26:51;;;;;;;0.10;0.10;;;8.80;77.50;;;;;;6175429;23;19997;-90
2021/01/19 08:29:18;;;;;;;1.85;0.35;;;8.90;77.50;;;;;;6225852;23;20003;-90
2021/01/19 08:31:54;;;;;;;0.30;0.00;;;9.00;77.60;;;;;;6227035;23;20005;-90
2021/01/19 08:34:20;;;;;;;2.80;0.50;;;9.20;77.70;;;;;;6203831;23;20000;-91
2021/01/19 08:36:47;;;;;;;1.13;0.33;;;9.30;77.80;;;;;;6230174;23;19993;-92
2021/01/19 08:39:17;;;;;;;1.40;0.57;;;9.30;77.90;;;;;;6227078;23;20007;-90
2021/01/19 08:41:48;;;;;;;2.85;0.57;;;9.30;78.10;;;;;;6195688;23;20023;-90
2021/01/19 08:44:15;;;;;;;0.15;0.00;;;9.10;78.60;;;;;;6200133;23;20009;-94
2021/01/19 08:46:41;;;;;;;0.63;0.22;;;8.80;79.40;;;;;;6200447;23;20006;-93
2021/01/19 08:49:09;;;;;;;0.57;0.30;;;8.70;80.10;;;;;;6172114;23;20007;-95
2021/01/19 08:51:36;;;;;;;0.40;0.20;;;8.60;80.20;;;;;;6179367;23;20001;-93
2021/01/19 08:54:06;;;;;;;0.65;0.38;;;8.50;80.50;;;;;;6210995;23;20068;-91
2021/01/19 08:56:36;;;;;;;2.25;0.13;;;8.50;80.50;;;;;;6209898;23;20048;-90
2021/01/19 08:59:03;;;;;;;12.02;0.20;;;8.50;80.50;;;;;;6211905;23;20049;-90
2021/01/19 09:01:29;;;;;;;0.20;0.10;;;8.30;80.80;;;;;;6209378;23;20053;-90
2021/01/19 09:04:00;;;;;;;0.00;0.00;;;8.00;81.30;;;;;;6210451;23;20037;-90
2021/01/19 09:06:26;;;;;;;0.10;0.05;;;7.80;81.90;;;;;;6210402;23;20060;-89
2021/01/19 09:08:59;;;;;;;0.25;0.10;;;7.70;82.30;;;;;;6209084;23;20099;-91
2021/01/19 09:11:34;;;;;;;0.35;0.20;;;7.70;82.20;;;;;;6210674;23;20061;-89
2021/01/19 09:14:08;;;;;;;0.20;0.10;;;7.70;82.30;;;;;;6176265;23;20009;-90
2021/01/19 09:16:38;;;;;;;0.83;0.17;;;7.70;82.20;;;;;;6187988;23;20020;-92
2021/01/19 09:19:09;;;;;;;0.33;0.10;;;7.60;82.10;;;;;;6191527;23;20005;-93
2021/01/19 09:21:38;;;;;;;0.32;0.08;;;7.70;82.00;;;;;;6191562;23;20001;-92
2021/01/19 09:24:21;;;;;;;0.30;0.10;;;7.70;81.70;;;;;;6190695;23;19994;-92
2021/01/19 09:27:07;;;;;;;0.00;0.00;;;7.90;81.20;;;;;;6188092;23;20005;-93
2021/01/19 09:29:33;;;;;;;0.00;0.00;;;7.90;80.90;;;;;;6192461;23;20020;-91
2021/01/19 09:32:00;;;;;;;2.70;0.30;;;8.00;80.90;;;;;;6162735;23;20001;-87
2021/01/19 09:34:27;;;;;;;7.03;0.30;;;8.00;80.60;;;;;;6191766;23;19993;-91
2021/01/19 09:36:54;;;;;;;1.60;0.37;;;8.00;80.60;;;;;;6188122;23;20005;-91
2021/01/19 09:39:28;;;;;;;3.00;0.43;;;8.10;80.70;;;;;;6188392;23;20016;-91
2021/01/19 09:41:55;;;;;;;0.53;0.20;;;8.10;80.50;;;;;;6187992;23;20013;-87
2021/01/19 09:44:21;;;;;;;0.27;0.10;;;8.20;80.50;;;;;;6188022;23;20388;-92
2021/01/19 09:46:52;;;;;;;1.30;0.33;;;8.20;80.50;;;;;;6192675;23;20009;-90
2021/01/19 09:49:19;;;;;;;0.00;0.00;;;8.20;80.30;;;;;;6214144;23;20008;-92
2021/01/19 09:51:46;;;;;;;0.00;0.00;;;8.10;80.50;;;;;;6214700;23;20001;-88
2021/01/19 09:54:12;;;;;;;1.73;0.37;;;8.10;80.70;;;;;;6185840;23;20001;-91
2021/01/19 09:56:38;;;;;;;1.27;0.20;;;8.00;80.70;;;;;;6212030;23;20001;-88
2021/01/19 09:59:05;;;;;;;3.27;0.83;;;8.10;80.90;;;;;;6209453;23;20028;-92
2021/01/19 10:01:32;;;;;;;0.67;0.30;;;8.20;80.80;;;;;;6214645;23;20016;-92
2021/01/19 10:03:59;;;;;;;0.20;0.13;;;8.20;80.70;;;;;;6209464;23;20269;-92
2021/01/19 10:06:25;;;;;;;0.77;0.40;;;8.30;80.30;;;;;;6185843;23;20053;-90
2021/01/19 10:08:53;;;;;;;0.52;0.10;;;8.40;80.10;;;;;;6214834;23;19997;-90
2021/01/19 10:11:32;;;;;;;0.10;0.10;;;8.70;79.90;;;;;;6215572;23;19997;-92
2021/01/19 10:14:29;;;;;;;0.00;0.00;;;8.90;79.30;;;;;;6213537;23;20003;-92
2021/01/19 10:16:55;;;;;;;0.10;0.05;;;9.10;79.10;;;;;;6187789;23;20010;-89
2021/01/19 10:19:26;;;;;;;0.00;0.00;;;9.20;79.10;;;;;;6209045;23;20001;-90
2021/01/19 10:22:03;;;;;;;0.57;0.15;;;9.20;79.00;;;;;;6213825;23;20423;-90
2021/01/19 10:24:29;;;;;;;17.45;0.35;;;9.30;79.20;;;;;;6211074;23;20012;-90
2021/01/19 10:27:05;;;;;;;0.10;0.03;;;9.40;79.10;;;;;;6210064;23;20001;-90
2021/01/19 10:29:39;;;;;;;0.00;0.00;;;9.30;79.30;;;;;;6187067;23;20009;-90
2021/01/19 10:32:08;;;;;;;1.17;0.15;;;9.40;79.50;;;;;;6186190;23;20016;-90
2021/01/19 10:34:34;;;;;;;3.00;0.55;;;9.40;79.50;;;;;;6214966;23;19994;-93
2021/01/19 10:37:01;;;;;;;3.85;1.20;;;9.50;79.40;;;;;;6186583;23;20357;-92
2021/01/19 10:39:30;;;;;;;15.77;2.45;;;9.40;79.60;;;;;;6185327;23;20160;-83
2021/01/19 10:41:57;;;;;;;1.65;0.60;;;9.20;80.00;;;;;;6204800;23;19997;-88
2021/01/19 10:44:24;;;;;;;1.17;0.57;;;9.10;80.60;;;;;;6234005;23;20061;-87
2021/01/19 10:46:58;;;;;;;3.72;0.52;;;9.10;80.80;;;;;;6232242;23;20152;-90
2021/01/19 10:49:29;;;;;;;4.30;0.65;;;9.20;80.60;;;;;;6208519;23;20060;-89
2021/01/19 10:51:55;;;;;;;1.45;0.55;;;9.00;80.50;;;;;;6235472;23;20044;-90
2021/01/19 10:54:21;;;;;;;2.35;0.57;;;8.80;81.10;;;;;;6209029;23;20048;-90
2021/01/19 10:57:07;;;;;;;0.82;0.50;;;8.50;81.90;;;;;;6236245;23;20049;-92
2021/01/19 10:59:34;;;;;;;1.85;0.43;;;8.30;82.40;;;;;;6210107;23;20053;-91
2021/01/19 11:02:00;;;;;;;0.37;0.23;;;8.20;82.70;;;;;;6205055;23;20012;-90
2021/01/19 11:04:27;;;;;;;1.17;0.32;;;8.10;82.90;;;;;;6191599;23;20016;-92
2021/01/19 11:06:53;;;;;;;0.15;0.05;;;8.00;83.10;;;;;;6193546;23;20381;-91
2021/01/19 11:09:19;;;;;;;1.58;0.95;;;7.90;83.10;;;;;;6188998;23;20281;-92
2021/01/19 11:11:46;;;;;;;0.00;0.00;;;7.90;83.20;;;;;;6188347;23;20001;-94
2021/01/19 11:14:12;;;;;;;6.85;0.80;;;7.90;83.20;;;;;;6190926;23;20001;-94
2021/01/19 11:16:40;;;;;;;0.40;0.20;;;7.80;83.90;;;;;;6212528;23;20016;-94
2021/01/19 11:19:14;;;;;;;2.55;0.82;;;7.80;83.10;;;;;;6213964;23;20005;-92
2021/01/19 11:21:42;;;;;;;0.30;0.30;;;7.80;83.10;;;;;;6214437;23;20278;-94
2021/01/19 11:24:09;;;;;;;0.15;0.05;;;7.80;83.10;;;;;;6212848;23;20013;-95
2021/01/19 11:26:37;;;;;;;0.07;0.07;;;7.80;83.00;;;;;;6196612;23;19997;-93
2021/01/19 11:29:04;;;;;;;0.00;0.00;;;7.80;82.90;;;;;;6217937;23;20030;-92
2021/01/19 11:31:38;;;;;;;0.70;0.30;;;7.80;82.90;;;;;;6218468;23;20020;-94
2021/01/19 11:51:58;;;;;;;0.93;0.27;;;7.90;82.30;;;;;;6192514;22;20021;-94
2021/01/19 11:54:44;;;;;;;;;;;;;;;;;;;;;
2021/01/19 12:03:51;;;;;;;0.55;0.20;;;8.10;82.20;;;;;;6168155;23;20009;-94
2021/01/19 12:07:09;;;;;;;0.57;0.15;;;8.10;82.00;;;;;;6181260;23;20001;-94
2021/01/19 12:12:58;;;;;;;6.13;0.57;;;8.20;81.80;;;;;;6082344;23;20283;-94
2021/01/19 12:20:07;;;;;;;;;;;;;;;;;;;;;
2021/01/19 12:45:24;;;;;;;0.10;0.10;;;8.20;82.30;;;;;;6158032;23;20033;-92
2021/01/19 12:47:51;;;;;;;0.38;0.13;;;8.20;82.40;;;;;;6171398;23;20004;-92
2021/01/19 12:50:18;;;;;;;0.22;0.10;;;8.20;82.30;;;;;;6190415;23;20012;-94
2021/01/19 12:53:09;;;;;;;0.40;0.13;;;8.20;82.40;;;;;;6172314;23;19997;-94
2021/01/19 12:55:34;;;;;;;5.82;0.50;;;8.20;82.50;;;;;;6197832;23;20004;-93
2021/01/19 12:58:01;;;;;;;1.45;0.25;;;8.20;82.60;;;;;;6170361;23;20001;-95
2021/01/19 13:00:27;;;;;;;10.23;0.20;;;8.20;82.70;;;;;;6191919;23;20013;-92
2021/01/19 13:02:54;;;;;;;4.30;0.35;;;8.10;82.70;;;;;;6166336;23;19996;-93
2021/01/19 13:05:21;;;;;;;0.73;0.20;;;8.10;82.70;;;;;;6192602;23;20007;-93
2021/01/19 13:07:47;;;;;;;1.58;0.20;;;8.20;82.80;;;;;;6167853;23;20003;-93
2021/01/19 13:10:14;;;;;;;2.55;0.70;;;8.10;82.90;;;;;;6192202;23;20013;-95
2021/01/19 13:12:40;;;;;;;4.85;0.93;;;8.10;83.70;;;;;;6217992;23;20001;-94
2021/01/19 13:15:08;;;;;;;4.15;0.63;;;8.10;83.00;;;;;;6188795;23;20016;-94
2021/01/19 13:17:34;;;;;;;3.65;0.50;;;8.10;83.10;;;;;;6166744;23;20001;-94
2021/01/19 13:20:01;;;;;;;0.63;0.28;;;8.10;83.10;;;;;;6191720;23;20004;-94
2021/01/19 13:22:27;;;;;;;0.55;0.15;;;8.10;83.10;;;;;;6166538;23;20005;-94
2021/01/19 13:25:00;;;;;;;2.33;0.88;;;8.00;83.20;;;;;;6171464;23;20000;-93
2021/01/19 13:27:27;;;;;;;0.93;0.52;;;8.00;83.30;;;;;;6197320;23;19996;-94
2021/01/19 13:29:54;;;;;;;1.40;0.65;;;8.00;83.40;;;;;;6173252;23;20015;-92
2021/01/19 13:32:20;;;;;;;1.48;0.65;;;8.00;83.40;;;;;;6172587;23;20017;-93
2021/01/19 13:34:47;;;;;;;2.03;0.82;;;8.00;83.40;;;;;;6198116;23;20005;-93
2021/01/19 13:37:13;;;;;;;3.95;1.77;;;8.00;83.40;;;;;;6199448;23;20004;-93
2021/01/19 13:39:41;;;;;;;1.63;0.50;;;8.00;83.40;;;;;;6174575;23;19996;-92
2021/01/19 13:48:55;;;;;;;0.57;0.20;;;8.10;83.50;;;;;;6097569;23;20009;-93
2021/01/19 13:52:27;;;;;;;;;;;;;;;;;;;;;
2021/01/19 13:59:45;;;;;;;0.00;0.00;;;8.10;83.30;;;;;;6077021;23;20015;-93
2021/01/19 14:02:12;;;;;;;0.35;0.08;;;8.00;83.20;;;;;;5974084;23;20459;-92
2021/01/19 14:04:38;;;;;;;1.92;0.68;;;8.10;83.30;;;;;;6045872;23;20006;-94
2021/01/19 14:07:05;;;;;;;0.85;0.50;;;8.10;83.20;;;;;;6119605;23;20005;-94
2021/01/19 14:09:33;;;;;;;1.13;0.43;;;8.20;83.30;;;;;;6165283;23;19997;-94
2021/01/19 14:11:59;;;;;;;3.05;0.63;;;8.20;83.30;;;;;;6182456;23;20395;-94
2021/01/19 14:14:26;;;;;;;0.20;0.00;;;8.20;83.30;;;;;;6159180;23;20001;-93
2021/01/19 14:17:00;;;;;;;0.55;0.10;;;8.20;83.30;;;;;;6160382;23;20013;-94
2021/01/19 14:23:27;;;;;;;0.60;0.38;;;8.30;83.30;;;;;;6036222;23;20031;-94
2021/01/19 14:25:56;;;;;;;0.20;0.10;;;8.20;83.30;;;;;;6030133;23;20158;-90
2021/01/19 14:28:23;;;;;;;1.67;0.57;;;8.30;83.30;;;;;;6028774;23;20017;-92